Time;durP1;ratioP1;P1;durP2;ratioP2;P2;SDS_P1;SDS_P2;PMS_P1;PMS_P2;Temp;Humidity;BMP_temperature;BMP_pressure;BME280_temperature;BME280_humidity;BME280_pressure;Samples;Min_cycle;Max_cycle;Signal;HPM_P1;HPM_P2
2022/07/08 00:00:54;;;;;;;;;;;;;;;;;;2140677;27;19930;-44
2022/07/08 00:01:55;;;;;;;;;;;;;;;;;;2140733;27;19927;-44
2022/07/08 00:02:56;;;;;;;;;;;;;;;;;;2139794;27;20006;-44
2022/07/08 00:03:57;;;;;;;;;;;;;;;;;;2140747;27;19926;-44
2022/07/08 00:04:57;;;;;;;;;;;;;;;;;;2140683;27;19958;-43
2022/07/08 00:05:58;;;;;;;;;;;;;;;;;;2140699;27;20013;-45
2022/07/08 00:06:59;;;;;;;;;;;;;;;;;;2141085;27;19930;-44
2022/07/08 00:08:00;;;;;;;;;;;;;;;;;;2140565;27;19945;-44
2022/07/08 00:09:01;;;;;;;;;;;;;;;;;;2140748;27;19922;-44
2022/07/08 00:10:02;;;;;;;;;;;;;;;;;;2140803;27;19927;-44
2022/07/08 00:11:03;;;;;;;;;;;;;;;;;;2139012;27;19980;-44
2022/07/08 00:12:04;;;;;;;;;;;;;;;;;;2131935;27;19923;-44
2022/07/08 00:13:05;;;;;;;;;;;;;;;;;;2132142;27;19923;-43
2022/07/08 00:14:05;;;;;;;;;;;;;;;;;;2131822;27;20264;-45
2022/07/08 00:15:08;;;;;;;;;;;;;;;;;;2132031;27;19937;-44
2022/07/08 00:16:08;;;;;;;;;;;;;;;;;;2131872;27;20010;-43
2022/07/08 00:17:10;;;;;;;;;;;;;;;;;;2131947;27;20372;-43
2022/07/08 00:18:10;;;;;;;;;;;;;;;;;;2132015;27;19958;-45
2022/07/08 00:19:12;;;;;;;;;;;;;;;;;;2131981;27;19966;-44
2022/07/08 00:20:13;;;;;;;;;;;;;;;;;;2132216;27;20017;-43
2022/07/08 00:21:14;;;;;;;;;;;;;;;;;;2132006;27;19923;-44
2022/07/08 00:22:15;;;;;;;;;;;;;;;;;;2132000;27;20013;-44
2022/07/08 00:23:16;;;;;;;;;;;;;;;;;;2131852;27;19923;-45
2022/07/08 00:24:17;;;;;;;;;;;;;;;;;;2132067;27;20396;-45
2022/07/08 00:25:18;;;;;;;;;;;;;;;;;;2131933;27;19950;-44
2022/07/08 00:26:18;;;;;;;;;;;;;;;;;;2131703;27;19923;-44
2022/07/08 00:27:19;;;;;;;;;;;;;;;;;;2137940;27;19956;-45
2022/07/08 00:28:21;;;;;;;;;;;;;;;;;;2140683;27;19923;-45
2022/07/08 00:29:22;;;;;;;;;;;;;;;;;;2140466;27;20005;-45
2022/07/08 00:30:23;;;;;;;;;;;;;;;;;;2140621;27;20035;-45
2022/07/08 00:31:23;;;;;;;;;;;;;;;;;;2140428;27;19999;-45
2022/07/08 00:32:24;;;;;;;;;;;;;;;;;;2140585;27;19923;-45
2022/07/08 00:33:25;;;;;;;;;;;;;;;;;;2140717;27;20402;-45
2022/07/08 00:34:26;;;;;;;;;;;;;;;;;;2140571;27;19923;-46
2022/07/08 00:35:27;;;;;;;;;;;;;;;;;;2140646;27;20010;-47
2022/07/08 00:36:28;;;;;;;;;;;;;;;;;;2140482;27;19950;-45
2022/07/08 00:37:29;;;;;;;;;;;;;;;;;;2140515;27;19927;-45
2022/07/08 00:38:30;;;;;;;;;;;;;;;;;;2140381;27;20009;-45
2022/07/08 00:39:31;;;;;;;;;;;;;;;;;;2140467;27;20036;-46
2022/07/08 00:40:34;;;;;;;;;;;;;;;;;;2140555;27;19923;-47
2022/07/08 00:41:35;;;;;;;;;;;;;;;;;;2140166;27;20036;-46
2022/07/08 00:42:36;;;;;;;;;;;;;;;;;;2140297;27;20006;-45
2022/07/08 00:43:37;;;;;;;;;;;;;;;;;;2140584;27;19968;-45
2022/07/08 00:44:37;;;;;;;;;;;;;;;;;;2140342;27;19961;-46
2022/07/08 00:45:38;;;;;;;;;;;;;;;;;;2140402;27;20195;-48
2022/07/08 00:46:39;;;;;;;;;;;;;;;;;;2140479;27;19934;-46
2022/07/08 00:47:40;;;;;;;;;;;;;;;;;;2140297;27;19927;-46
2022/07/08 00:48:41;;;;;;;;;;;;;;;;;;2140617;27;19923;-46
2022/07/08 00:49:42;;;;;;;;;;;;;;;;;;2140323;27;20017;-45
2022/07/08 00:50:43;;;;;;;;;;;;;;;;;;2140416;27;20400;-46
2022/07/08 00:51:44;;;;;;;;;;;;;;;;;;2140312;27;20017;-48
2022/07/08 00:52:45;;;;;;;;;;;;;;;;;;2140597;27;20021;-47
2022/07/08 00:53:46;;;;;;;;;;;;;;;;;;2140285;27;19947;-47
2022/07/08 00:54:47;;;;;;;;;;;;;;;;;;2140533;27;20005;-46
2022/07/08 00:55:47;;;;;;;;;;;;;;;;;;2140346;27;20383;-46
2022/07/08 00:56:50;;;;;;;;;;;;;;;;;;2140171;27;19930;-46
2022/07/08 00:57:51;;;;;;;;;;;;;;;;;;2140362;27;20438;-46
2022/07/08 00:58:52;;;;;;;;;;;;;;;;;;2140543;27;19974;-45
2022/07/08 00:59:54;;;;;;;;;;;;;;;;;;2140381;27;20176;-44
2022/07/08 01:00:55;;;;;;;;;;;;;;;;;;2140248;27;20442;-44
2022/07/08 01:01:57;;;;;;;;;;;;;;;;;;2140303;27;20041;-43
2022/07/08 01:02:58;;;;;;;;;;;;;;;;;;2140399;27;20006;-44
2022/07/08 01:03:59;;;;;;;;;;;;;;;;;;2140315;27;20318;-44
2022/07/08 01:05:00;;;;;;;;;;;;;;;;;;2140369;27;20006;-44
2022/07/08 01:06:00;;;;;;;;;;;;;;;;;;2140268;27;20005;-44
2022/07/08 01:07:01;;;;;;;;;;;;;;;;;;2140551;27;20331;-44
2022/07/08 01:08:02;;;;;;;;;;;;;;;;;;2140495;27;20363;-46
2022/07/08 01:09:03;;;;;;;;;;;;;;;;;;2140337;27;20042;-46
2022/07/08 01:10:04;;;;;;;;;;;;;;;;;;2140285;27;19954;-45
2022/07/08 01:11:05;;;;;;;;;;;;;;;;;;2138655;27;20018;-46
2022/07/08 01:12:06;;;;;;;;;;;;;;;;;;2131721;27;20002;-46
2022/07/08 01:13:07;;;;;;;;;;;;;;;;;;2131581;27;20017;-46
2022/07/08 01:14:08;;;;;;;;;;;;;;;;;;2131689;27;20482;-46
2022/07/08 01:15:08;;;;;;;;;;;;;;;;;;2131639;27;19927;-45
2022/07/08 01:16:10;;;;;;;;;;;;;;;;;;2131584;27;20303;-46
2022/07/08 01:17:10;;;;;;;;;;;;;;;;;;2131563;27;19941;-45
2022/07/08 01:18:11;;;;;;;;;;;;;;;;;;2131758;27;19923;-45
2022/07/08 01:19:13;;;;;;;;;;;;;;;;;;2131494;27;19923;-44
2022/07/08 01:20:13;;;;;;;;;;;;;;;;;;2131759;27;19945;-46
2022/07/08 01:21:14;;;;;;;;;;;;;;;;;;2131401;27;20013;-48
2022/07/08 01:22:15;;;;;;;;;;;;;;;;;;2131918;27;19923;-46
2022/07/08 01:23:16;;;;;;;;;;;;;;;;;;2131566;27;19981;-45
2022/07/08 01:24:17;;;;;;;;;;;;;;;;;;2131595;27;19923;-46
2022/07/08 01:25:18;;;;;;;;;;;;;;;;;;2131552;27;20399;-45
2022/07/08 01:26:19;;;;;;;;;;;;;;;;;;2131526;27;20031;-45
2022/07/08 01:27:20;;;;;;;;;;;;;;;;;;2131487;27;19980;-45
2022/07/08 01:28:21;;;;;;;;;;;;;;;;;;2131581;27;20425;-44
2022/07/08 01:29:21;;;;;;;;;;;;;;;;;;2131638;27;19947;-45
2022/07/08 01:30:22;;;;;;;;;;;;;;;;;;2131426;27;19988;-44
2022/07/08 01:31:23;;;;;;;;;;;;;;;;;;2131629;27;19923;-45
2022/07/08 01:32:24;;;;;;;;;;;;;;;;;;2131441;27;19930;-44
2022/07/08 01:33:25;;;;;;;;;;;;;;;;;;2131878;27;20319;-47
2022/07/08 01:34:26;;;;;;;;;;;;;;;;;;2131636;27;19923;-48
2022/07/08 01:35:27;;;;;;;;;;;;;;;;;;2131525;27;20333;-47
2022/07/08 01:36:28;;;;;;;;;;;;;;;;;;2131572;27;19972;-46
2022/07/08 01:37:29;;;;;;;;;;;;;;;;;;2131649;27;19980;-48
2022/07/08 01:38:30;;;;;;;;;;;;;;;;;;2138366;27;19927;-46
2022/07/08 01:39:31;;;;;;;;;;;;;;;;;;2140043;27;19923;-46
2022/07/08 01:40:32;;;;;;;;;;;;;;;;;;2140265;27;20286;-47
2022/07/08 01:41:33;;;;;;;;;;;;;;;;;;2140196;27;20299;-44
2022/07/08 01:42:34;;;;;;;;;;;;;;;;;;2140263;27;19962;-44
2022/07/08 01:43:35;;;;;;;;;;;;;;;;;;2140382;27;19931;-44
2022/07/08 01:44:36;;;;;;;;;;;;;;;;;;2140105;27;19926;-44
2022/07/08 01:45:36;;;;;;;;;;;;;;;;;;2140058;27;19980;-45
2022/07/08 01:46:37;;;;;;;;;;;;;;;;;;2140146;27;20017;-45
2022/07/08 01:47:39;;;;;;;;;;;;;;;;;;2140243;27;20301;-46
2022/07/08 01:48:40;;;;;;;;;;;;;;;;;;2140158;27;19933;-46
2022/07/08 01:49:41;;;;;;;;;;;;;;;;;;2140094;27;19922;-46
2022/07/08 01:50:42;;;;;;;;;;;;;;;;;;2140240;27;20192;-46
2022/07/08 01:51:43;;;;;;;;;;;;;;;;;;2140048;27;19962;-46
2022/07/08 01:52:44;;;;;;;;;;;;;;;;;;2140081;27;19957;-47
2022/07/08 01:53:45;;;;;;;;;;;;;;;;;;2140000;27;20344;-46
2022/07/08 01:54:46;;;;;;;;;;;;;;;;;;2139924;27;20059;-46
2022/07/08 01:55:47;;;;;;;;;;;;;;;;;;2140027;27;19923;-47
2022/07/08 01:56:48;;;;;;;;;;;;;;;;;;2139887;27;19965;-46
2022/07/08 01:57:49;;;;;;;;;;;;;;;;;;2140096;27;19926;-44
2022/07/08 01:58:50;;;;;;;;;;;;;;;;;;2140220;27;19923;-46
2022/07/08 01:59:51;;;;;;;;;;;;;;;;;;2139892;27;19926;-48
2022/07/08 02:00:52;;;;;;;;;;;;;;;;;;2140067;27;19990;-46
2022/07/08 02:01:52;;;;;;;;;;;;;;;;;;2140011;27;19930;-46
2022/07/08 02:02:54;;;;;;;;;;;;;;;;;;2140130;27;20291;-46
2022/07/08 02:03:54;;;;;;;;;;;;;;;;;;2140110;27;20303;-44
2022/07/08 02:04:55;;;;;;;;;;;;;;;;;;2140324;27;19923;-44
2022/07/08 02:05:56;;;;;;;;;;;;;;;;;;2139974;27;19930;-44
2022/07/08 02:06:57;;;;;;;;;;;;;;;;;;2140088;27;19930;-44
2022/07/08 02:07:58;;;;;;;;;;;;;;;;;;2140134;27;20061;-44
2022/07/08 02:08:59;;;;;;;;;;;;;;;;;;2139852;27;19927;-45
2022/07/08 02:10:00;;;;;;;;;;;;;;;;;;2140112;27;19942;-44
2022/07/08 02:12:20;;;;;;;;;;;;;;;;;;2131439;27;19927;-46
2022/07/08 02:13:21;;;;;;;;;;;;;;;;;;2131253;27;19946;-44
2022/07/08 02:14:23;;;;;;;;;;;;;;;;;;2131437;27;19927;-45
2022/07/08 02:15:24;;;;;;;;;;;;;;;;;;2131258;27;19927;-45
2022/07/08 02:16:25;;;;;;;;;;;;;;;;;;2131220;27;19966;-44
2022/07/08 02:17:26;;;;;;;;;;;;;;;;;;2131498;27;19972;-43
2022/07/08 02:18:27;;;;;;;;;;;;;;;;;;2131409;27;20332;-44
2022/07/08 02:19:28;;;;;;;;;;;;;;;;;;2131228;27;19923;-44
2022/07/08 02:20:29;;;;;;;;;;;;;;;;;;2131376;27;20014;-44
2022/07/08 02:21:30;;;;;;;;;;;;;;;;;;2131258;27;19930;-44
2022/07/08 02:22:31;;;;;;;;;;;;;;;;;;2131421;27;19923;-45
2022/07/08 02:23:32;;;;;;;;;;;;;;;;;;2131329;27;19923;-45
2022/07/08 02:24:33;;;;;;;;;;;;;;;;;;2131245;27;19923;-43
2022/07/08 02:25:34;;;;;;;;;;;;;;;;;;2131293;27;20265;-44
2022/07/08 02:26:34;;;;;;;;;;;;;;;;;;2132713;27;19923;-44
2022/07/08 02:27:36;;;;;;;;;;;;;;;;;;2132845;27;19960;-44
2022/07/08 02:28:36;;;;;;;;;;;;;;;;;;2132630;27;20386;-45
2022/07/08 02:29:37;;;;;;;;;;;;;;;;;;2132869;27;19934;-44
2022/07/08 02:30:38;;;;;;;;;;;;;;;;;;2132679;27;19991;-44
2022/07/08 02:31:39;;;;;;;;;;;;;;;;;;2132965;27;19927;-44
2022/07/08 02:32:40;;;;;;;;;;;;;;;;;;2132775;27;19976;-44
2022/07/08 02:33:41;;;;;;;;;;;;;;;;;;2132673;27;19968;-45
2022/07/08 02:34:42;;;;;;;;;;;;;;;;;;2139214;27;20009;-45
2022/07/08 02:35:43;;;;;;;;;;;;;;;;;;2141287;27;19930;-46
2022/07/08 02:36:44;;;;;;;;;;;;;;;;;;2141152;27;19937;-45
2022/07/08 02:37:45;;;;;;;;;;;;;;;;;;2141393;27;19987;-45
2022/07/08 02:38:45;;;;;;;;;;;;;;;;;;2141525;27;20281;-44
2022/07/08 02:39:46;;;;;;;;;;;;;;;;;;2141385;27;19995;-48
2022/07/08 02:40:47;;;;;;;;;;;;;;;;;;2141365;27;20386;-47
2022/07/08 02:41:48;;;;;;;;;;;;;;;;;;2141175;27;19922;-47
2022/07/08 02:42:50;;;;;;;;;;;;;;;;;;2141428;27;19969;-47
2022/07/08 02:43:51;;;;;;;;;;;;;;;;;;2141444;27;20398;-44
2022/07/08 02:44:51;;;;;;;;;;;;;;;;;;2141180;27;19923;-45
2022/07/08 02:45:52;;;;;;;;;;;;;;;;;;2141125;27;19933;-46
2022/07/08 02:46:53;;;;;;;;;;;;;;;;;;2141197;27;20404;-45
2022/07/08 02:47:54;;;;;;;;;;;;;;;;;;2141216;27;19930;-45
2022/07/08 02:48:55;;;;;;;;;;;;;;;;;;2141180;27;19930;-46
2022/07/08 02:49:56;;;;;;;;;;;;;;;;;;2141341;27;19923;-46
2022/07/08 02:50:57;;;;;;;;;;;;;;;;;;2141387;27;19923;-45
2022/07/08 02:51:58;;;;;;;;;;;;;;;;;;2141348;27;19922;-45
2022/07/08 02:52:59;;;;;;;;;;;;;;;;;;2141485;27;19976;-48
2022/07/08 02:54:00;;;;;;;;;;;;;;;;;;2141113;27;20002;-47
2022/07/08 02:55:01;;;;;;;;;;;;;;;;;;2141268;27;19923;-48
2022/07/08 02:56:02;;;;;;;;;;;;;;;;;;2141058;27;19923;-47
2022/07/08 02:57:02;;;;;;;;;;;;;;;;;;2141180;27;19930;-47
2022/07/08 02:58:04;;;;;;;;;;;;;;;;;;2141057;27;19974;-47
2022/07/08 02:59:04;;;;;;;;;;;;;;;;;;2141635;27;19973;-45
2022/07/08 03:00:05;;;;;;;;;;;;;;;;;;2141109;27;20286;-44
2022/07/08 03:01:06;;;;;;;;;;;;;;;;;;2141051;27;19965;-46
2022/07/08 03:02:07;;;;;;;;;;;;;;;;;;2141211;27;20435;-46
2022/07/08 03:03:15;;;;;;;;;;;;;;;;;;2141249;27;19957;-44
2022/07/08 03:04:16;;;;;;;;;;;;;;;;;;2141211;27;19958;-44
2022/07/08 03:05:16;;;;;;;;;;;;;;;;;;2141080;27;19946;-44
2022/07/08 03:06:17;;;;;;;;;;;;;;;;;;2141007;27;20383;-44
2022/07/08 03:07:18;;;;;;;;;;;;;;;;;;2141046;27;19922;-45
2022/07/08 03:08:19;;;;;;;;;;;;;;;;;;2141292;27;20005;-44
2022/07/08 03:09:20;;;;;;;;;;;;;;;;;;2141109;27;19923;-44
2022/07/08 03:10:21;;;;;;;;;;;;;;;;;;2141132;27;19923;-47
2022/07/08 03:11:22;;;;;;;;;;;;;;;;;;2136893;27;19971;-44
2022/07/08 03:12:23;;;;;;;;;;;;;;;;;;2132712;27;20021;-45
2022/07/08 03:13:23;;;;;;;;;;;;;;;;;;2132395;27;19923;-45
2022/07/08 03:14:24;;;;;;;;;;;;;;;;;;2132435;27;20068;-44
2022/07/08 03:15:25;;;;;;;;;;;;;;;;;;2132354;27;20418;-44
2022/07/08 03:16:26;;;;;;;;;;;;;;;;;;2132284;27;19930;-46
2022/07/08 03:17:27;;;;;;;;;;;;;;;;;;2132440;27;19923;-45
2022/07/08 03:18:28;;;;;;;;;;;;;;;;;;2132539;27;19924;-44
2022/07/08 03:19:29;;;;;;;;;;;;;;;;;;2132254;27;20430;-44
2022/07/08 03:20:30;;;;;;;;;;;;;;;;;;2132353;27;19930;-44
2022/07/08 03:21:31;;;;;;;;;;;;;;;;;;2133055;27;19923;-44
2022/07/08 03:22:32;;;;;;;;;;;;;;;;;;2132243;27;19923;-44
2022/07/08 03:23:33;;;;;;;;;;;;;;;;;;2132484;27;20415;-45
2022/07/08 03:24:34;;;;;;;;;;;;;;;;;;2132602;27;19930;-46
2022/07/08 03:25:35;;;;;;;;;;;;;;;;;;2132308;27;19927;-46
2022/07/08 03:26:36;;;;;;;;;;;;;;;;;;2132307;27;19923;-46
2022/07/08 03:27:37;;;;;;;;;;;;;;;;;;2132295;27;19923;-46
2022/07/08 03:28:37;;;;;;;;;;;;;;;;;;2132186;27;20433;-46
2022/07/08 03:29:38;;;;;;;;;;;;;;;;;;2132311;27;19944;-46
2022/07/08 03:30:40;;;;;;;;;;;;;;;;;;2136410;27;19922;-46
2022/07/08 03:31:41;;;;;;;;;;;;;;;;;;2140743;27;19927;-47
2022/07/08 03:32:41;;;;;;;;;;;;;;;;;;2141048;27;19922;-46
2022/07/08 03:33:42;;;;;;;;;;;;;;;;;;2140985;27;20011;-46
2022/07/08 03:34:43;;;;;;;;;;;;;;;;;;2140994;27;19922;-46
2022/07/08 03:35:44;;;;;;;;;;;;;;;;;;2141013;27;20359;-47
2022/07/08 03:36:45;;;;;;;;;;;;;;;;;;2140617;27;19922;-46
2022/07/08 03:37:47;;;;;;;;;;;;;;;;;;2140067;27;19962;-47
2022/07/08 03:38:48;;;;;;;;;;;;;;;;;;2141050;27;20391;-46
2022/07/08 03:39:50;;;;;;;;;;;;;;;;;;2140795;27;20018;-46
2022/07/08 03:42:10;;;;;;;;;;;;;;;;;;2140953;27;20244;-47
2022/07/08 03:43:11;;;;;;;;;;;;;;;;;;2140939;27;19922;-48
2022/07/08 03:44:12;;;;;;;;;;;;;;;;;;2140840;27;19923;-46
2022/07/08 03:45:13;;;;;;;;;;;;;;;;;;2140903;27;19923;-46
2022/07/08 03:46:14;;;;;;;;;;;;;;;;;;2141116;27;19922;-45
2022/07/08 03:47:15;;;;;;;;;;;;;;;;;;2140871;27;19923;-44
2022/07/08 03:48:16;;;;;;;;;;;;;;;;;;2141330;27;20356;-46
2022/07/08 03:49:17;;;;;;;;;;;;;;;;;;2140870;27;19929;-46
2022/07/08 03:50:18;;;;;;;;;;;;;;;;;;2140772;27;19930;-46
2022/07/08 03:51:20;;;;;;;;;;;;;;;;;;2140832;27;19968;-47
2022/07/08 03:52:20;;;;;;;;;;;;;;;;;;2140794;27;20080;-47
2022/07/08 03:53:22;;;;;;;;;;;;;;;;;;2140874;27;19938;-47
2022/07/08 03:54:23;;;;;;;;;;;;;;;;;;2140800;27;19934;-48
2022/07/08 03:55:24;;;;;;;;;;;;;;;;;;2140917;27;19930;-47
2022/07/08 03:56:26;;;;;;;;;;;;;;;;;;2140649;27;19969;-47
2022/07/08 03:57:27;;;;;;;;;;;;;;;;;;2140936;27;19923;-46
2022/07/08 03:58:28;;;;;;;;;;;;;;;;;;2141028;27;19923;-43
2022/07/08 03:59:29;;;;;;;;;;;;;;;;;;2140949;27;19951;-44
2022/07/08 04:00:30;;;;;;;;;;;;;;;;;;2140924;27;20418;-44
2022/07/08 04:01:34;;;;;;;;;;;;;;;;;;2141193;27;19966;-49
2022/07/08 04:02:35;;;;;;;;;;;;;;;;;;2140910;27;20442;-44
2022/07/08 04:03:36;;;;;;;;;;;;;;;;;;2140928;27;20025;-47
2022/07/08 04:04:37;;;;;;;;;;;;;;;;;;2140768;27;20395;-48
2022/07/08 04:05:38;;;;;;;;;;;;;;;;;;2140856;27;19931;-46
2022/07/08 04:06:39;;;;;;;;;;;;;;;;;;2140955;27;20025;-49
2022/07/08 04:07:40;;;;;;;;;;;;;;;;;;2140778;27;20351;-47
2022/07/08 04:08:45;;;;;;;;;;;;;;;;;;2140731;27;19923;-47
2022/07/08 04:09:45;;;;;;;;;;;;;;;;;;2140720;27;19930;-48
2022/07/08 04:10:46;;;;;;;;;;;;;;;;;;2140850;27;20013;-48
2022/07/08 04:11:47;;;;;;;;;;;;;;;;;;2132858;27;19923;-47
2022/07/08 04:12:48;;;;;;;;;;;;;;;;;;2132228;27;19930;-45
2022/07/08 04:13:50;;;;;;;;;;;;;;;;;;2132032;27;20367;-45
2022/07/08 04:14:51;;;;;;;;;;;;;;;;;;2132195;27;20018;-44
2022/07/08 04:15:52;;;;;;;;;;;;;;;;;;2132167;27;20379;-46
2022/07/08 04:16:53;;;;;;;;;;;;;;;;;;2131983;27;20387;-46
2022/07/08 04:17:54;;;;;;;;;;;;;;;;;;2132109;27;19938;-46
2022/07/08 04:18:55;;;;;;;;;;;;;;;;;;2132081;27;19923;-46
2022/07/08 04:19:56;;;;;;;;;;;;;;;;;;2132539;27;19930;-46
2022/07/08 04:20:57;;;;;;;;;;;;;;;;;;2131937;27;19922;-46
2022/07/08 04:21:58;;;;;;;;;;;;;;;;;;2132104;27;19923;-48
2022/07/08 04:22:59;;;;;;;;;;;;;;;;;;2132285;27;20060;-46
2022/07/08 04:24:00;;;;;;;;;;;;;;;;;;2131726;27;20460;-47
2022/07/08 04:25:01;;;;;;;;;;;;;;;;;;2131960;27;19927;-45
2022/07/08 04:26:02;;;;;;;;;;;;;;;;;;2131821;27;19930;-45
2022/07/08 04:27:03;;;;;;;;;;;;;;;;;;2137186;27;19930;-46
2022/07/08 04:28:04;;;;;;;;;;;;;;;;;;2140584;27;19922;-45
2022/07/08 04:29:05;;;;;;;;;;;;;;;;;;2140794;27;19923;-43
2022/07/08 04:30:06;;;;;;;;;;;;;;;;;;2140890;27;19929;-44
2022/07/08 04:31:07;;;;;;;;;;;;;;;;;;2140461;27;19923;-43
2022/07/08 04:32:08;;;;;;;;;;;;;;;;;;2140587;27;19923;-43
2022/07/08 04:33:09;;;;;;;;;;;;;;;;;;2140631;27;19930;-47
2022/07/08 04:34:10;;;;;;;;;;;;;;;;;;2140504;27;20059;-47
2022/07/08 04:35:11;;;;;;;;;;;;;;;;;;2140486;27;19930;-46
2022/07/08 04:36:12;;;;;;;;;;;;;;;;;;2140342;27;20311;-48
2022/07/08 04:37:13;;;;;;;;;;;;;;;;;;2140479;27;20298;-46
2022/07/08 04:38:14;;;;;;;;;;;;;;;;;;2140485;27;20508;-47
2022/07/08 04:39:15;;;;;;;;;;;;;;;;;;2140648;27;19958;-47
2022/07/08 04:40:16;;;;;;;;;;;;;;;;;;2140712;27;20293;-47
2022/07/08 04:41:17;;;;;;;;;;;;;;;;;;2140816;27;19923;-43
2022/07/08 04:42:18;;;;;;;;;;;;;;;;;;2140553;27;19949;-44
2022/07/08 04:43:20;;;;;;;;;;;;;;;;;;2140788;27;20202;-43
2022/07/08 04:44:22;;;;;;;;;;;;;;;;;;2140811;27;19930;-49
2022/07/08 04:45:24;;;;;;;;;;;;;;;;;;2140562;27;20005;-48
2022/07/08 04:46:24;;;;;;;;;;;;;;;;;;2140293;27;19923;-46
2022/07/08 04:47:25;;;;;;;;;;;;;;;;;;2140421;27;19929;-48
2022/07/08 04:48:26;;;;;;;;;;;;;;;;;;2140199;27;20383;-46
2022/07/08 04:49:27;;;;;;;;;;;;;;;;;;2140468;27;20006;-47
2022/07/08 04:50:28;;;;;;;;;;;;;;;;;;2140375;27;20395;-48
2022/07/08 04:51:29;;;;;;;;;;;;;;;;;;2140386;27;20371;-46
2022/07/08 04:52:30;;;;;;;;;;;;;;;;;;2140518;27;20168;-46
2022/07/08 04:53:31;;;;;;;;;;;;;;;;;;2140424;27;19922;-46
2022/07/08 04:54:32;;;;;;;;;;;;;;;;;;2140506;27;19922;-43
2022/07/08 04:55:33;;;;;;;;;;;;;;;;;;2140302;27;19958;-45
2022/07/08 04:56:34;;;;;;;;;;;;;;;;;;2140460;27;19965;-44
2022/07/08 04:57:35;;;;;;;;;;;;;;;;;;2140363;27;19966;-43
2022/07/08 04:58:35;;;;;;;;;;;;;;;;;;2140602;27;20375;-48
2022/07/08 04:59:36;;;;;;;;;;;;;;;;;;2140336;27;20021;-46
2022/07/08 05:00:37;;;;;;;;;;;;;;;;;;2140255;27;19945;-46
2022/07/08 05:01:38;;;;;;;;;;;;;;;;;;2140248;27;19937;-46
2022/07/08 05:02:39;;;;;;;;;;;;;;;;;;2140307;27;19934;-48
2022/07/08 05:03:40;;;;;;;;;;;;;;;;;;2140714;27;19937;-46
2022/07/08 05:04:41;;;;;;;;;;;;;;;;;;2140298;27;19977;-47
2022/07/08 05:05:42;;;;;;;;;;;;;;;;;;2140438;27;19958;-46
2022/07/08 05:06:43;;;;;;;;;;;;;;;;;;2140113;27;19930;-46
2022/07/08 05:07:44;;;;;;;;;;;;;;;;;;2140674;27;19922;-45
2022/07/08 05:08:45;;;;;;;;;;;;;;;;;;2140296;27;20047;-43
2022/07/08 05:09:46;;;;;;;;;;;;;;;;;;2140343;27;19922;-43
2022/07/08 05:10:48;;;;;;;;;;;;;;;;;;2140535;27;19962;-43
2022/07/08 05:11:49;;;;;;;;;;;;;;;;;;2132222;27;19923;-44
2022/07/08 05:12:50;;;;;;;;;;;;;;;;;;2131572;27;20017;-43
2022/07/08 05:13:51;;;;;;;;;;;;;;;;;;2131834;27;19931;-43
2022/07/08 05:14:52;;;;;;;;;;;;;;;;;;2131629;27;20032;-43
2022/07/08 05:15:53;;;;;;;;;;;;;;;;;;2131556;27;20150;-43
2022/07/08 05:16:54;;;;;;;;;;;;;;;;;;2132062;27;20014;-48
2022/07/08 05:17:55;;;;;;;;;;;;;;;;;;2131563;27;20395;-46
2022/07/08 05:18:56;;;;;;;;;;;;;;;;;;2131735;27;19948;-48
2022/07/08 05:19:57;;;;;;;;;;;;;;;;;;2131496;27;19923;-47
2022/07/08 05:20:57;;;;;;;;;;;;;;;;;;2131666;27;20015;-46
2022/07/08 05:21:58;;;;;;;;;;;;;;;;;;2132024;27;19923;-46
2022/07/08 05:22:59;;;;;;;;;;;;;;;;;;2134432;27;19973;-46
2022/07/08 05:24:00;;;;;;;;;;;;;;;;;;2140485;27;20290;-43
2022/07/08 05:25:01;;;;;;;;;;;;;;;;;;2140277;27;19930;-43
2022/07/08 05:26:02;;;;;;;;;;;;;;;;;;2140254;27;19923;-43
2022/07/08 05:27:03;;;;;;;;;;;;;;;;;;2140155;27;19922;-43
2022/07/08 05:28:04;;;;;;;;;;;;;;;;;;2140620;27;19934;-43
2022/07/08 05:29:04;;;;;;;;;;;;;;;;;;2140173;27;20367;-43
2022/07/08 05:30:06;;;;;;;;;;;;;;;;;;2140279;27;20032;-44
2022/07/08 05:31:06;;;;;;;;;;;;;;;;;;2140116;27;20387;-44
2022/07/08 05:32:07;;;;;;;;;;;;;;;;;;2140169;27;20010;-44
2022/07/08 05:33:08;;;;;;;;;;;;;;;;;;2140209;27;19991;-43
2022/07/08 05:34:09;;;;;;;;;;;;;;;;;;2140135;27;19927;-43
2022/07/08 05:35:10;;;;;;;;;;;;;;;;;;2140245;27;20002;-43
2022/07/08 05:36:11;;;;;;;;;;;;;;;;;;2140455;27;20264;-48
2022/07/08 05:37:12;;;;;;;;;;;;;;;;;;2140438;27;19961;-43
2022/07/08 05:38:13;;;;;;;;;;;;;;;;;;2140092;27;19984;-43
2022/07/08 05:39:14;;;;;;;;;;;;;;;;;;2140312;27;20453;-43
2022/07/08 05:40:15;;;;;;;;;;;;;;;;;;2140013;27;20018;-50
2022/07/08 05:41:16;;;;;;;;;;;;;;;;;;2140207;27;19930;-47
2022/07/08 05:42:17;;;;;;;;;;;;;;;;;;2140373;27;20017;-46
2022/07/08 05:43:18;;;;;;;;;;;;;;;;;;2140520;27;20009;-48
2022/07/08 05:44:19;;;;;;;;;;;;;;;;;;2140541;27;19961;-43
2022/07/08 05:45:19;;;;;;;;;;;;;;;;;;2140067;27;19934;-43
2022/07/08 05:46:20;;;;;;;;;;;;;;;;;;2140144;27;19973;-44
2022/07/08 05:47:21;;;;;;;;;;;;;;;;;;2140251;27;19930;-44
2022/07/08 05:48:22;;;;;;;;;;;;;;;;;;2140381;27;20303;-44
2022/07/08 05:49:23;;;;;;;;;;;;;;;;;;2140103;27;19923;-43
2022/07/08 05:50:24;;;;;;;;;;;;;;;;;;2140217;27;20371;-43
2022/07/08 05:51:25;;;;;;;;;;;;;;;;;;2139955;27;20033;-43
2022/07/08 05:52:26;;;;;;;;;;;;;;;;;;2140145;27;19975;-43
2022/07/08 05:53:26;;;;;;;;;;;;;;;;;;2140276;27;19963;-44
2022/07/08 05:54:27;;;;;;;;;;;;;;;;;;2140106;27;19923;-43
2022/07/08 05:55:28;;;;;;;;;;;;;;;;;;2140412;27;19923;-47
2022/07/08 05:56:29;;;;;;;;;;;;;;;;;;2140215;27;20334;-46
2022/07/08 05:57:34;;;;;;;;;;;;;;;;;;2140088;27;19922;-47
2022/07/08 05:58:35;;;;;;;;;;;;;;;;;;2139986;27;19934;-47
2022/07/08 05:59:36;;;;;;;;;;;;;;;;;;2139992;27;20040;-47
2022/07/08 06:00:37;;;;;;;;;;;;;;;;;;2140283;27;19986;-47
2022/07/08 06:01:38;;;;;;;;;;;;;;;;;;2141407;27;20025;-46
2022/07/08 06:02:39;;;;;;;;;;;;;;;;;;2141814;27;19962;-47
2022/07/08 06:03:40;;;;;;;;;;;;;;;;;;2141632;27;19954;-46
2022/07/08 06:04:41;;;;;;;;;;;;;;;;;;2141498;27;19926;-47
2022/07/08 06:05:41;;;;;;;;;;;;;;;;;;2141640;27;19942;-48
2022/07/08 06:06:42;;;;;;;;;;;;;;;;;;2141514;27;19945;-46
2022/07/08 06:07:43;;;;;;;;;;;;;;;;;;2141455;27;19969;-47
2022/07/08 06:08:44;;;;;;;;;;;;;;;;;;2141494;27;19930;-48
2022/07/08 06:09:45;;;;;;;;;;;;;;;;;;2141438;27;20446;-48
2022/07/08 06:10:46;;;;;;;;;;;;;;;;;;2141505;27;19930;-46
2022/07/08 06:11:47;;;;;;;;;;;;;;;;;;2133694;27;19970;-47
2022/07/08 06:12:49;;;;;;;;;;;;;;;;;;2133075;27;19947;-48
2022/07/08 06:13:50;;;;;;;;;;;;;;;;;;2132885;27;20007;-46
2022/07/08 06:14:51;;;;;;;;;;;;;;;;;;2132982;27;19923;-46
2022/07/08 06:15:52;;;;;;;;;;;;;;;;;;2132964;27;19929;-44
2022/07/08 06:16:53;;;;;;;;;;;;;;;;;;2133047;27;20407;-47
2022/07/08 06:17:54;;;;;;;;;;;;;;;;;;2132757;27;19976;-46
2022/07/08 06:18:55;;;;;;;;;;;;;;;;;;2132636;27;19930;-47
2022/07/08 06:19:56;;;;;;;;;;;;;;;;;;2141491;27;19923;-43
2022/07/08 06:20:57;;;;;;;;;;;;;;;;;;2141313;27;19968;-43
2022/07/08 06:21:58;;;;;;;;;;;;;;;;;;2141558;27;19922;-44
2022/07/08 06:22:59;;;;;;;;;;;;;;;;;;2141353;27;20348;-44
2022/07/08 06:24:00;;;;;;;;;;;;;;;;;;2141432;27;19962;-43
2022/07/08 06:25:01;;;;;;;;;;;;;;;;;;2141845;27;20032;-44
2022/07/08 06:26:02;;;;;;;;;;;;;;;;;;2141346;27;19948;-43
2022/07/08 06:27:03;;;;;;;;;;;;;;;;;;2141547;27;20347;-48
2022/07/08 06:28:04;;;;;;;;;;;;;;;;;;2141373;27;20056;-47
2022/07/08 06:29:04;;;;;;;;;;;;;;;;;;2141853;27;19954;-48
2022/07/08 06:30:05;;;;;;;;;;;;;;;;;;2141731;27;19947;-43
2022/07/08 06:31:06;;;;;;;;;;;;;;;;;;2141620;27;19923;-43
2022/07/08 06:32:07;;;;;;;;;;;;;;;;;;2141266;27;20358;-43
2022/07/08 06:33:08;;;;;;;;;;;;;;;;;;2141409;27;20014;-44
2022/07/08 06:34:09;;;;;;;;;;;;;;;;;;2141604;27;19977;-48
2022/07/08 06:35:11;;;;;;;;;;;;;;;;;;2141363;27;19948;-49
2022/07/08 06:36:12;;;;;;;;;;;;;;;;;;2141800;27;19973;-44
2022/07/08 06:37:13;;;;;;;;;;;;;;;;;;2141704;27;19948;-48
2022/07/08 06:38:14;;;;;;;;;;;;;;;;;;2141396;27;20017;-51
2022/07/08 06:39:15;;;;;;;;;;;;;;;;;;2141336;27;20017;-50
2022/07/08 06:40:16;;;;;;;;;;;;;;;;;;2141565;27;19927;-50
2022/07/08 06:41:16;;;;;;;;;;;;;;;;;;2141806;27;19974;-50
2022/07/08 06:42:19;;;;;;;;;;;;;;;;;;2141658;27;20029;-45
2022/07/08 06:43:22;;;;;;;;;;;;;;;;;;2141668;27;19995;-47
2022/07/08 06:44:24;;;;;;;;;;;;;;;;;;2141651;27;19955;-45
2022/07/08 06:45:25;;;;;;;;;;;;;;;;;;2141664;27;19933;-50
2022/07/08 06:46:26;;;;;;;;;;;;;;;;;;2141317;27;19969;-47
2022/07/08 06:47:27;;;;;;;;;;;;;;;;;;2141522;27;20379;-50
2022/07/08 06:48:28;;;;;;;;;;;;;;;;;;2141628;27;19962;-43
2022/07/08 06:49:30;;;;;;;;;;;;;;;;;;2141625;27;19934;-44
2022/07/08 06:50:31;;;;;;;;;;;;;;;;;;2141680;27;20025;-46
2022/07/08 06:51:32;;;;;;;;;;;;;;;;;;2141834;27;19923;-48
2022/07/08 06:52:33;;;;;;;;;;;;;;;;;;2141585;27;19966;-43
2022/07/08 06:54:50;;;;;;;;;;;;;;;;;;2140622;27;19980;-43
2022/07/08 06:55:51;;;;;;;;;;;;;;;;;;2141280;27;19962;-42
2022/07/08 06:56:52;;;;;;;;;;;;;;;;;;2141276;27;19973;-51
2022/07/08 06:57:53;;;;;;;;;;;;;;;;;;2141714;27;19927;-43
2022/07/08 06:58:54;;;;;;;;;;;;;;;;;;2141145;27;20000;-46
2022/07/08 06:59:55;;;;;;;;;;;;;;;;;;2141358;27;20303;-47
2022/07/08 07:01:16;;;;;;;;;;;;;;;;;;2140893;27;20013;-47